sensor_id;sensor_type;location;lat;lon;timestamp;temperature;humidity
84916;DHT22;75178;53.054;5.846;2024-01-06T00:02:41;3.00;99.90
84916;DHT22;75178;53.054;5.846;2024-01-06T00:05:25;3.00;99.90
84916;DHT22;75178;53.054;5.846;2024-01-06T00:08:10;3.00;99.90
84916;DHT22;75178;53.054;5.846;2024-01-06T00:10:54;3.00;99.90
84916;DHT22;75178;53.054;5.846;2024-01-06T00:13:39;3.00;99.90
84916;DHT22;75178;53.054;5.846;2024-01-06T00:16:23;3.00;99.90
84916;DHT22;75178;53.054;5.846;2024-01-06T00:19:07;2.90;99.90
84916;DHT22;75178;53.054;5.846;2024-01-06T00:21:52;2.90;99.90
84916;DHT22;75178;53.054;5.846;2024-01-06T00:24:36;2.90;99.90
84916;DHT22;75178;53.054;5.846;2024-01-06T00:27:20;2.80;99.90
84916;DHT22;75178;53.054;5.846;2024-01-06T00:30:06;2.80;99.90
84916;DHT22;75178;53.054;5.846;2024-01-06T00:32:51;2.80;99.90
84916;DHT22;75178;53.054;5.846;2024-01-06T00:35:35;2.80;99.90
84916;DHT22;75178;53.054;5.846;2024-01-06T00:38:20;2.70;99.90
84916;DHT22;75178;53.054;5.846;2024-01-06T00:41:04;2.70;99.90
84916;DHT22;75178;53.054;5.846;2024-01-06T00:43:48;2.70;99.90
84916;DHT22;75178;53.054;5.846;2024-01-06T00:46:34;2.60;99.90
84916;DHT22;75178;53.054;5.846;2024-01-06T00:49:18;2.60;99.90
84916;DHT22;75178;53.054;5.846;2024-01-06T00:52:02;2.60;99.90
84916;DHT22;75178;53.054;5.846;2024-01-06T00:54:46;2.60;99.90
84916;DHT22;75178;53.054;5.846;2024-01-06T00:57:31;2.60;99.90
84916;DHT22;75178;53.054;5.846;2024-01-06T01:00:15;2.60;99.90
84916;DHT22;75178;53.054;5.846;2024-01-06T01:03:00;2.50;99.90
84916;DHT22;75178;53.054;5.846;2024-01-06T01:05:45;2.50;99.90
84916;DHT22;75178;53.054;5.846;2024-01-06T01:08:29;2.50;99.90
84916;DHT22;75178;53.054;5.846;2024-01-06T01:11:13;2.40;99.90
84916;DHT22;75178;53.054;5.846;2024-01-06T01:13:57;2.40;99.90
84916;DHT22;75178;53.054;5.846;2024-01-06T01:16:41;2.40;99.90
84916;DHT22;75178;53.054;5.846;2024-01-06T01:19:27;2.50;99.90
84916;DHT22;75178;53.054;5.846;2024-01-06T01:22:11;2.50;99.90
84916;DHT22;75178;53.054;5.846;2024-01-06T01:24:55;2.40;99.90
84916;DHT22;75178;53.054;5.846;2024-01-06T01:27:39;2.40;99.90
84916;DHT22;75178;53.054;5.846;2024-01-06T01:30:23;2.40;99.90
84916;DHT22;75178;53.054;5.846;2024-01-06T01:33:07;2.40;99.90
84916;DHT22;75178;53.054;5.846;2024-01-06T01:35:53;2.40;99.90
84916;DHT22;75178;53.054;5.846;2024-01-06T01:38:37;2.40;99.90
84916;DHT22;75178;53.054;5.846;2024-01-06T01:41:21;2.40;99.90
84916;DHT22;75178;53.054;5.846;2024-01-06T01:44:05;2.40;99.90
84916;DHT22;75178;53.054;5.846;2024-01-06T01:46:49;2.40;99.90
84916;DHT22;75178;53.054;5.846;2024-01-06T01:49:33;2.40;99.90
84916;DHT22;75178;53.054;5.846;2024-01-06T01:52:19;2.40;99.90
84916;DHT22;75178;53.054;5.846;2024-01-06T01:55:04;2.50;99.90
84916;DHT22;75178;53.054;5.846;2024-01-06T01:57:48;2.40;99.90
84916;DHT22;75178;53.054;5.846;2024-01-06T02:00:33;2.50;99.90
84916;DHT22;75178;53.054;5.846;2024-01-06T02:03:17;2.40;99.90
84916;DHT22;75178;53.054;5.846;2024-01-06T02:06:01;2.50;99.90
84916;DHT22;75178;53.054;5.846;2024-01-06T02:08:47;2.50;99.90
84916;DHT22;75178;53.054;5.846;2024-01-06T02:11:31;2.50;99.90
84916;DHT22;75178;53.054;5.846;2024-01-06T02:14:15;2.40;99.90
84916;DHT22;75178;53.054;5.846;2024-01-06T02:17:00;2.50;99.90
84916;DHT22;75178;53.054;5.846;2024-01-06T02:19:44;2.50;99.90
84916;DHT22;75178;53.054;5.846;2024-01-06T02:22:29;2.40;99.90
84916;DHT22;75178;53.054;5.846;2024-01-06T02:25:13;2.50;99.90
84916;DHT22;75178;53.054;5.846;2024-01-06T02:27:57;2.40;99.90
84916;DHT22;75178;53.054;5.846;2024-01-06T02:30:42;2.40;99.90
84916;DHT22;75178;53.054;5.846;2024-01-06T02:33:27;2.40;99.90
84916;DHT22;75178;53.054;5.846;2024-01-06T02:36:11;2.30;99.90
84916;DHT22;75178;53.054;5.846;2024-01-06T02:38:56;2.40;99.90
84916;DHT22;75178;53.054;5.846;2024-01-06T02:41:40;2.40;99.90
84916;DHT22;75178;53.054;5.846;2024-01-06T02:44:24;2.30;99.90
84916;DHT22;75178;53.054;5.846;2024-01-06T02:47:09;2.40;99.90
84916;DHT22;75178;53.054;5.846;2024-01-06T02:49:53;2.40;99.90
84916;DHT22;75178;53.054;5.846;2024-01-06T02:52:37;2.40;99.90
84916;DHT22;75178;53.054;5.846;2024-01-06T02:55:22;2.40;99.90
84916;DHT22;75178;53.054;5.846;2024-01-06T02:58:07;2.40;99.90
84916;DHT22;75178;53.054;5.846;2024-01-06T03:00:51;2.40;99.90
84916;DHT22;75178;53.054;5.846;2024-01-06T03:03:35;2.40;99.90
84916;DHT22;75178;53.054;5.846;2024-01-06T03:06:19;2.50;99.90
84916;DHT22;75178;53.054;5.846;2024-01-06T03:09:04;2.50;99.90
84916;DHT22;75178;53.054;5.846;2024-01-06T03:11:49;2.40;99.90
84916;DHT22;75178;53.054;5.846;2024-01-06T03:14:34;2.40;99.90
84916;DHT22;75178;53.054;5.846;2024-01-06T03:17:18;2.40;99.90
84916;DHT22;75178;53.054;5.846;2024-01-06T03:20:03;2.50;99.90
84916;DHT22;75178;53.054;5.846;2024-01-06T03:22:47;2.50;99.90
84916;DHT22;75178;53.054;5.846;2024-01-06T03:25:31;2.50;99.90
84916;DHT22;75178;53.054;5.846;2024-01-06T03:28:17;2.50;99.90
84916;DHT22;75178;53.054;5.846;2024-01-06T03:31:01;2.40;99.90
84916;DHT22;75178;53.054;5.846;2024-01-06T03:33:45;2.40;99.90
84916;DHT22;75178;53.054;5.846;2024-01-06T03:36:29;2.40;99.90
84916;DHT22;75178;53.054;5.846;2024-01-06T03:39:13;2.30;99.90
84916;DHT22;75178;53.054;5.846;2024-01-06T03:41:57;2.30;99.90
84916;DHT22;75178;53.054;5.846;2024-01-06T03:44:43;2.30;99.90
84916;DHT22;75178;53.054;5.846;2024-01-06T03:47:29;2.30;99.90
84916;DHT22;75178;53.054;5.846;2024-01-06T03:50:13;2.30;99.90
84916;DHT22;75178;53.054;5.846;2024-01-06T03:52:58;2.30;99.90
84916;DHT22;75178;53.054;5.846;2024-01-06T03:55:42;2.30;99.90
84916;DHT22;75178;53.054;5.846;2024-01-06T03:58:26;2.30;99.90
84916;DHT22;75178;53.054;5.846;2024-01-06T04:01:11;2.30;99.90
84916;DHT22;75178;53.054;5.846;2024-01-06T04:03:55;2.30;99.90
84916;DHT22;75178;53.054;5.846;2024-01-06T04:06:40;2.30;99.90
84916;DHT22;75178;53.054;5.846;2024-01-06T04:09:24;2.30;99.90
84916;DHT22;75178;53.054;5.846;2024-01-06T04:12:08;2.30;99.90
84916;DHT22;75178;53.054;5.846;2024-01-06T04:14:52;2.40;99.90
84916;DHT22;75178;53.054;5.846;2024-01-06T04:17:38;2.30;99.90
84916;DHT22;75178;53.054;5.846;2024-01-06T04:20:22;2.40;99.90
84916;DHT22;75178;53.054;5.846;2024-01-06T04:23:06;2.40;99.90
84916;DHT22;75178;53.054;5.846;2024-01-06T04:25:51;2.40;99.90
84916;DHT22;75178;53.054;5.846;2024-01-06T04:28:35;2.30;99.90
84916;DHT22;75178;53.054;5.846;2024-01-06T04:31:19;2.40;99.90
84916;DHT22;75178;53.054;5.846;2024-01-06T04:34:04;2.40;99.90
84916;DHT22;75178;53.054;5.846;2024-01-06T04:36:48;2.40;99.90
84916;DHT22;75178;53.054;5.846;2024-01-06T04:39:32;2.40;99.90
84916;DHT22;75178;53.054;5.846;2024-01-06T04:42:17;2.40;99.90
84916;DHT22;75178;53.054;5.846;2024-01-06T04:45:01;2.40;99.90
84916;DHT22;75178;53.054;5.846;2024-01-06T04:47:45;2.40;99.90
84916;DHT22;75178;53.054;5.846;2024-01-06T04:50:30;2.40;99.90
84916;DHT22;75178;53.054;5.846;2024-01-06T04:53:15;2.40;99.90
84916;DHT22;75178;53.054;5.846;2024-01-06T04:55:59;2.40;99.90
84916;DHT22;75178;53.054;5.846;2024-01-06T04:58:43;2.40;99.90
84916;DHT22;75178;53.054;5.846;2024-01-06T05:01:27;2.40;99.90
84916;DHT22;75178;53.054;5.846;2024-01-06T05:04:11;2.40;99.90
84916;DHT22;75178;53.054;5.846;2024-01-06T05:06:57;2.40;99.90
84916;DHT22;75178;53.054;5.846;2024-01-06T05:09:41;2.40;99.90
84916;DHT22;75178;53.054;5.846;2024-01-06T05:12:25;2.40;99.90
84916;DHT22;75178;53.054;5.846;2024-01-06T05:15:09;2.40;99.90
84916;DHT22;75178;53.054;5.846;2024-01-06T05:17:53;2.40;99.90
84916;DHT22;75178;53.054;5.846;2024-01-06T05:20:38;2.30;99.90
84916;DHT22;75178;53.054;5.846;2024-01-06T05:23:23;2.30;99.90
84916;DHT22;75178;53.054;5.846;2024-01-06T05:26:08;2.30;99.90
84916;DHT22;75178;53.054;5.846;2024-01-06T05:28:52;2.40;99.90
84916;DHT22;75178;53.054;5.846;2024-01-06T05:31:36;2.30;99.90
84916;DHT22;75178;53.054;5.846;2024-01-06T05:34:20;2.30;99.90
84916;DHT22;75178;53.054;5.846;2024-01-06T05:37:05;2.30;99.90
84916;DHT22;75178;53.054;5.846;2024-01-06T05:39:50;2.40;99.90
84916;DHT22;75178;53.054;5.846;2024-01-06T05:42:34;2.40;99.90
84916;DHT22;75178;53.054;5.846;2024-01-06T05:45:19;2.40;99.90
84916;DHT22;75178;53.054;5.846;2024-01-06T05:48:03;2.40;99.90
84916;DHT22;75178;53.054;5.846;2024-01-06T05:50:47;2.50;99.90
84916;DHT22;75178;53.054;5.846;2024-01-06T05:53:32;2.50;99.90
84916;DHT22;75178;53.054;5.846;2024-01-06T05:56:23;2.50;99.90
84916;DHT22;75178;53.054;5.846;2024-01-06T05:59:08;2.50;99.90
84916;DHT22;75178;53.054;5.846;2024-01-06T06:01:52;2.50;99.90
84916;DHT22;75178;53.054;5.846;2024-01-06T06:04:36;2.50;99.90
84916;DHT22;75178;53.054;5.846;2024-01-06T06:07:20;2.50;99.90
84916;DHT22;75178;53.054;5.846;2024-01-06T06:10:06;2.50;99.90
84916;DHT22;75178;53.054;5.846;2024-01-06T06:12:52;2.60;99.90
84916;DHT22;75178;53.054;5.846;2024-01-06T06:15:36;2.60;99.90
84916;DHT22;75178;53.054;5.846;2024-01-06T06:18:20;2.60;99.90
84916;DHT22;75178;53.054;5.846;2024-01-06T06:21:05;2.50;99.90
84916;DHT22;75178;53.054;5.846;2024-01-06T06:23:50;2.50;99.90
84916;DHT22;75178;53.054;5.846;2024-01-06T06:26:34;2.50;99.90
84916;DHT22;75178;53.054;5.846;2024-01-06T06:29:19;2.50;99.90
84916;DHT22;75178;53.054;5.846;2024-01-06T06:32:03;2.50;99.90
84916;DHT22;75178;53.054;5.846;2024-01-06T06:34:48;2.50;99.90
84916;DHT22;75178;53.054;5.846;2024-01-06T06:37:32;2.60;99.90
84916;DHT22;75178;53.054;5.846;2024-01-06T06:40:16;2.60;99.90
84916;DHT22;75178;53.054;5.846;2024-01-06T06:43:00;2.60;99.90
84916;DHT22;75178;53.054;5.846;2024-01-06T06:45:45;2.60;99.90
84916;DHT22;75178;53.054;5.846;2024-01-06T06:48:29;2.60;99.90
84916;DHT22;75178;53.054;5.846;2024-01-06T06:51:14;2.60;99.90
84916;DHT22;75178;53.054;5.846;2024-01-06T06:53:58;2.50;99.90
84916;DHT22;75178;53.054;5.846;2024-01-06T06:56:42;2.50;99.90
84916;DHT22;75178;53.054;5.846;2024-01-06T06:59:26;2.50;99.90
84916;DHT22;75178;53.054;5.846;2024-01-06T07:02:11;2.60;99.90
84916;DHT22;75178;53.054;5.846;2024-01-06T07:04:56;2.60;99.90
84916;DHT22;75178;53.054;5.846;2024-01-06T07:07:40;2.50;99.90
84916;DHT22;75178;53.054;5.846;2024-01-06T07:10:24;2.60;99.90
84916;DHT22;75178;53.054;5.846;2024-01-06T07:13:09;2.60;99.90
84916;DHT22;75178;53.054;5.846;2024-01-06T07:15:53;2.50;99.90
84916;DHT22;75178;53.054;5.846;2024-01-06T07:18:38;2.60;99.90
84916;DHT22;75178;53.054;5.846;2024-01-06T07:21:23;2.50;99.90
84916;DHT22;75178;53.054;5.846;2024-01-06T07:24:07;2.60;99.90
84916;DHT22;75178;53.054;5.846;2024-01-06T07:26:51;2.60;99.90
84916;DHT22;75178;53.054;5.846;2024-01-06T07:29:35;2.60;99.90
84916;DHT22;75178;53.054;5.846;2024-01-06T07:32:19;2.60;99.90
84916;DHT22;75178;53.054;5.846;2024-01-06T07:35:05;2.60;99.90
84916;DHT22;75178;53.054;5.846;2024-01-06T07:37:50;2.70;99.90
84916;DHT22;75178;53.054;5.846;2024-01-06T07:40:34;2.70;99.90
84916;DHT22;75178;53.054;5.846;2024-01-06T07:43:28;2.70;99.90
84916;DHT22;75178;53.054;5.846;2024-01-06T07:46:17;2.70;99.90
84916;DHT22;75178;53.054;5.846;2024-01-06T07:49:01;2.70;99.90
84916;DHT22;75178;53.054;5.846;2024-01-06T07:51:47;2.70;99.90
84916;DHT22;75178;53.054;5.846;2024-01-06T07:54:31;2.70;99.90
84916;DHT22;75178;53.054;5.846;2024-01-06T07:57:15;2.70;99.90
84916;DHT22;75178;53.054;5.846;2024-01-06T07:59:59;2.70;99.90
84916;DHT22;75178;53.054;5.846;2024-01-06T08:02:43;2.70;99.90
84916;DHT22;75178;53.054;5.846;2024-01-06T08:05:27;2.70;99.90
84916;DHT22;75178;53.054;5.846;2024-01-06T08:08:13;2.80;99.90
84916;DHT22;75178;53.054;5.846;2024-01-06T08:10:57;2.80;99.90
84916;DHT22;75178;53.054;5.846;2024-01-06T08:13:41;2.80;99.90
84916;DHT22;75178;53.054;5.846;2024-01-06T08:16:25;2.80;99.90
84916;DHT22;75178;53.054;5.846;2024-01-06T08:19:09;2.80;99.90
84916;DHT22;75178;53.054;5.846;2024-01-06T08:21:54;2.80;99.90
84916;DHT22;75178;53.054;5.846;2024-01-06T08:24:39;2.80;99.90
84916;DHT22;75178;53.054;5.846;2024-01-06T08:27:23;2.90;99.90
84916;DHT22;75178;53.054;5.846;2024-01-06T08:30:08;2.90;99.90
84916;DHT22;75178;53.054;5.846;2024-01-06T08:32:53;2.90;99.90
84916;DHT22;75178;53.054;5.846;2024-01-06T08:35:37;2.90;99.90
84916;DHT22;75178;53.054;5.846;2024-01-06T08:38:21;2.90;99.90
84916;DHT22;75178;53.054;5.846;2024-01-06T08:41:06;2.90;99.90
84916;DHT22;75178;53.054;5.846;2024-01-06T08:43:51;2.90;99.90
84916;DHT22;75178;53.054;5.846;2024-01-06T08:46:35;2.90;99.90
84916;DHT22;75178;53.054;5.846;2024-01-06T08:49:19;2.90;99.90
84916;DHT22;75178;53.054;5.846;2024-01-06T08:52:04;2.90;99.90
84916;DHT22;75178;53.054;5.846;2024-01-06T08:54:48;2.90;99.90
84916;DHT22;75178;53.054;5.846;2024-01-06T08:57:34;2.90;99.90
84916;DHT22;75178;53.054;5.846;2024-01-06T09:00:18;2.90;99.90
84916;DHT22;75178;53.054;5.846;2024-01-06T09:03:03;2.90;99.90
84916;DHT22;75178;53.054;5.846;2024-01-06T09:05:47;2.90;99.90
84916;DHT22;75178;53.054;5.846;2024-01-06T09:08:31;2.80;99.90
84916;DHT22;75178;53.054;5.846;2024-01-06T09:11:15;2.80;99.90
84916;DHT22;75178;53.054;5.846;2024-01-06T09:14:01;2.80;99.90
84916;DHT22;75178;53.054;5.846;2024-01-06T09:16:45;2.90;99.90
84916;DHT22;75178;53.054;5.846;2024-01-06T09:19:30;2.90;99.90
84916;DHT22;75178;53.054;5.846;2024-01-06T09:22:14;2.80;99.90
84916;DHT22;75178;53.054;5.846;2024-01-06T09:24:58;2.80;99.90
84916;DHT22;75178;53.054;5.846;2024-01-06T09:27:42;2.80;99.90
84916;DHT22;75178;53.054;5.846;2024-01-06T09:30:28;2.80;99.90
84916;DHT22;75178;53.054;5.846;2024-01-06T09:33:12;2.80;99.90
84916;DHT22;75178;53.054;5.846;2024-01-06T09:35:56;2.80;99.90
84916;DHT22;75178;53.054;5.846;2024-01-06T09:38:40;2.80;99.90
84916;DHT22;75178;53.054;5.846;2024-01-06T09:41:25;2.80;99.90
84916;DHT22;75178;53.054;5.846;2024-01-06T09:44:09;2.80;99.90
84916;DHT22;75178;53.054;5.846;2024-01-06T09:46:55;2.80;99.90
84916;DHT22;75178;53.054;5.846;2024-01-06T09:49:47;2.80;99.90
84916;DHT22;75178;53.054;5.846;2024-01-06T09:52:32;2.80;99.90
84916;DHT22;75178;53.054;5.846;2024-01-06T09:55:17;2.80;99.90
84916;DHT22;75178;53.054;5.846;2024-01-06T09:58:02;2.80;99.90
84916;DHT22;75178;53.054;5.846;2024-01-06T10:00:48;2.80;99.90
84916;DHT22;75178;53.054;5.846;2024-01-06T10:03:34;2.80;99.90
84916;DHT22;75178;53.054;5.846;2024-01-06T10:06:18;2.80;99.90
84916;DHT22;75178;53.054;5.846;2024-01-06T10:09:03;2.80;99.90
84916;DHT22;75178;53.054;5.846;2024-01-06T10:11:47;2.80;99.90
84916;DHT22;75178;53.054;5.846;2024-01-06T10:14:31;2.90;99.90
84916;DHT22;75178;53.054;5.846;2024-01-06T10:17:16;2.90;99.90
84916;DHT22;75178;53.054;5.846;2024-01-06T10:20:02;2.90;99.90
84916;DHT22;75178;53.054;5.846;2024-01-06T10:22:46;2.90;99.90
84916;DHT22;75178;53.054;5.846;2024-01-06T10:25:30;2.80;99.90
84916;DHT22;75178;53.054;5.846;2024-01-06T10:28:15;2.80;99.90
84916;DHT22;75178;53.054;5.846;2024-01-06T10:30:59;2.90;99.90
84916;DHT22;75178;53.054;5.846;2024-01-06T10:33:43;2.90;99.90
84916;DHT22;75178;53.054;5.846;2024-01-06T10:36:29;2.90;99.90
84916;DHT22;75178;53.054;5.846;2024-01-06T10:39:13;2.90;99.90
84916;DHT22;75178;53.054;5.846;2024-01-06T10:41:58;2.90;99.90
84916;DHT22;75178;53.054;5.846;2024-01-06T10:44:43;2.80;99.90
84916;DHT22;75178;53.054;5.846;2024-01-06T10:47:29;2.90;99.90
84916;DHT22;75178;53.054;5.846;2024-01-06T10:50:14;2.90;99.90
84916;DHT22;75178;53.054;5.846;2024-01-06T10:53:02;2.80;99.90
84916;DHT22;75178;53.054;5.846;2024-01-06T10:55:49;2.80;99.90
84916;DHT22;75178;53.054;5.846;2024-01-06T10:58:34;2.90;99.90
84916;DHT22;75178;53.054;5.846;2024-01-06T11:01:21;2.90;99.90
84916;DHT22;75178;53.054;5.846;2024-01-06T11:04:06;2.90;99.90
84916;DHT22;75178;53.054;5.846;2024-01-06T11:06:50;2.90;99.90
84916;DHT22;75178;53.054;5.846;2024-01-06T11:09:37;2.90;99.90
84916;DHT22;75178;53.054;5.846;2024-01-06T11:12:23;2.90;99.90
84916;DHT22;75178;53.054;5.846;2024-01-06T11:15:07;2.90;99.90
84916;DHT22;75178;53.054;5.846;2024-01-06T11:17:53;2.80;99.90
84916;DHT22;75178;53.054;5.846;2024-01-06T11:20:37;2.80;99.90
84916;DHT22;75178;53.054;5.846;2024-01-06T11:23:21;2.80;99.90
84916;DHT22;75178;53.054;5.846;2024-01-06T11:26:09;2.80;99.90
84916;DHT22;75178;53.054;5.846;2024-01-06T11:28:53;2.80;99.90
84916;DHT22;75178;53.054;5.846;2024-01-06T11:31:38;2.80;99.90
84916;DHT22;75178;53.054;5.846;2024-01-06T11:34:22;2.80;99.90
84916;DHT22;75178;53.054;5.846;2024-01-06T11:37:07;2.80;99.90
84916;DHT22;75178;53.054;5.846;2024-01-06T11:39:51;2.80;99.90
84916;DHT22;75178;53.054;5.846;2024-01-06T11:42:41;2.80;99.90
84916;DHT22;75178;53.054;5.846;2024-01-06T11:45:25;2.80;99.90
84916;DHT22;75178;53.054;5.846;2024-01-06T11:48:11;2.80;99.90
84916;DHT22;75178;53.054;5.846;2024-01-06T11:50:55;2.80;99.90
84916;DHT22;75178;53.054;5.846;2024-01-06T11:53:40;2.90;99.90
84916;DHT22;75178;53.054;5.846;2024-01-06T11:56:24;2.80;99.90
84916;DHT22;75178;53.054;5.846;2024-01-06T11:59:10;2.90;99.90
84916;DHT22;75178;53.054;5.846;2024-01-06T12:01:55;2.90;99.90
84916;DHT22;75178;53.054;5.846;2024-01-06T12:04:40;2.80;99.90
84916;DHT22;75178;53.054;5.846;2024-01-06T12:07:24;2.80;99.90
84916;DHT22;75178;53.054;5.846;2024-01-06T12:10:09;2.80;99.90
84916;DHT22;75178;53.054;5.846;2024-01-06T12:12:58;2.90;99.90
84916;DHT22;75178;53.054;5.846;2024-01-06T12:15:44;2.80;99.90
84916;DHT22;75178;53.054;5.846;2024-01-06T12:18:28;2.90;99.90
84916;DHT22;75178;53.054;5.846;2024-01-06T12:21:13;2.80;99.90
84916;DHT22;75178;53.054;5.846;2024-01-06T12:24:14;2.80;99.90
84916;DHT22;75178;53.054;5.846;2024-01-06T12:26:59;2.80;99.90
84916;DHT22;75178;53.054;5.846;2024-01-06T12:29:43;2.80;99.90
84916;DHT22;75178;53.054;5.846;2024-01-06T12:32:29;2.80;99.90
84916;DHT22;75178;53.054;5.846;2024-01-06T12:35:14;2.80;99.90
84916;DHT22;75178;53.054;5.846;2024-01-06T12:37:58;2.80;99.90
84916;DHT22;75178;53.054;5.846;2024-01-06T12:40:42;2.80;99.90
84916;DHT22;75178;53.054;5.846;2024-01-06T12:43:27;2.80;99.90
84916;DHT22;75178;53.054;5.846;2024-01-06T12:46:11;2.80;99.90
84916;DHT22;75178;53.054;5.846;2024-01-06T12:48:56;2.80;99.90
84916;DHT22;75178;53.054;5.846;2024-01-06T12:51:41;2.80;99.90
84916;DHT22;75178;53.054;5.846;2024-01-06T12:54:25;2.80;99.90
84916;DHT22;75178;53.054;5.846;2024-01-06T12:57:09;2.80;99.90
84916;DHT22;75178;53.054;5.846;2024-01-06T12:59:53;2.80;99.90
84916;DHT22;75178;53.054;5.846;2024-01-06T13:02:37;2.80;99.90
84916;DHT22;75178;53.054;5.846;2024-01-06T13:05:23;2.70;99.90
84916;DHT22;75178;53.054;5.846;2024-01-06T13:08:07;2.80;99.90
84916;DHT22;75178;53.054;5.846;2024-01-06T13:10:51;2.80;99.90
84916;DHT22;75178;53.054;5.846;2024-01-06T13:13:36;2.80;99.90
84916;DHT22;75178;53.054;5.846;2024-01-06T13:16:20;2.80;99.90
84916;DHT22;75178;53.054;5.846;2024-01-06T13:19:04;2.80;99.90
84916;DHT22;75178;53.054;5.846;2024-01-06T13:21:49;2.80;99.90
84916;DHT22;75178;53.054;5.846;2024-01-06T13:24:34;2.80;99.90
84916;DHT22;75178;53.054;5.846;2024-01-06T13:27:18;2.80;99.90
84916;DHT22;75178;53.054;5.846;2024-01-06T13:30:02;2.80;99.90
84916;DHT22;75178;53.054;5.846;2024-01-06T13:32:47;2.80;99.90
84916;DHT22;75178;53.054;5.846;2024-01-06T13:35:31;2.70;99.90
84916;DHT22;75178;53.054;5.846;2024-01-06T13:38:17;2.80;99.90
84916;DHT22;75178;53.054;5.846;2024-01-06T13:41:01;2.80;99.90
84916;DHT22;75178;53.054;5.846;2024-01-06T13:43:45;2.80;99.90
84916;DHT22;75178;53.054;5.846;2024-01-06T13:46:29;2.80;99.90
84916;DHT22;75178;53.054;5.846;2024-01-06T13:49:13;2.80;99.90
84916;DHT22;75178;53.054;5.846;2024-01-06T13:51:57;2.80;99.90
84916;DHT22;75178;53.054;5.846;2024-01-06T13:54:43;2.80;99.90
84916;DHT22;75178;53.054;5.846;2024-01-06T13:57:27;2.80;99.90
84916;DHT22;75178;53.054;5.846;2024-01-06T14:00:12;2.80;99.90
84916;DHT22;75178;53.054;5.846;2024-01-06T14:02:57;2.80;99.90
84916;DHT22;75178;53.054;5.846;2024-01-06T14:05:41;2.80;99.90
84916;DHT22;75178;53.054;5.846;2024-01-06T14:08:25;2.70;99.90
84916;DHT22;75178;53.054;5.846;2024-01-06T14:11:10;2.70;99.90
84916;DHT22;75178;53.054;5.846;2024-01-06T14:13:55;2.70;99.90
84916;DHT22;75178;53.054;5.846;2024-01-06T14:16:40;2.70;99.90
84916;DHT22;75178;53.054;5.846;2024-01-06T14:19:24;2.60;99.90
84916;DHT22;75178;53.054;5.846;2024-01-06T14:22:08;2.60;99.90
84916;DHT22;75178;53.054;5.846;2024-01-06T14:24:53;2.60;99.90
84916;DHT22;75178;53.054;5.846;2024-01-06T14:27:38;2.60;99.90
84916;DHT22;75178;53.054;5.846;2024-01-06T14:30:23;2.60;99.90
84916;DHT22;75178;53.054;5.846;2024-01-06T14:33:07;2.60;99.90
84916;DHT22;75178;53.054;5.846;2024-01-06T14:35:51;2.60;99.90
84916;DHT22;75178;53.054;5.846;2024-01-06T14:38:35;2.60;99.90
84916;DHT22;75178;53.054;5.846;2024-01-06T14:41:19;2.50;99.90
84916;DHT22;75178;53.054;5.846;2024-01-06T14:44:05;2.50;99.90
84916;DHT22;75178;53.054;5.846;2024-01-06T14:46:49;2.50;99.90
84916;DHT22;75178;53.054;5.846;2024-01-06T14:49:33;2.50;99.90
84916;DHT22;75178;53.054;5.846;2024-01-06T14:52:17;2.50;99.90
84916;DHT22;75178;53.054;5.846;2024-01-06T14:55:01;2.50;99.90
84916;DHT22;75178;53.054;5.846;2024-01-06T14:57:45;2.50;99.90
84916;DHT22;75178;53.054;5.846;2024-01-06T15:00:31;2.40;99.90
84916;DHT22;75178;53.054;5.846;2024-01-06T15:03:15;2.40;99.90
84916;DHT22;75178;53.054;5.846;2024-01-06T15:05:59;2.40;99.90
84916;DHT22;75178;53.054;5.846;2024-01-06T15:08:43;2.40;99.90
84916;DHT22;75178;53.054;5.846;2024-01-06T15:11:27;2.40;99.90
84916;DHT22;75178;53.054;5.846;2024-01-06T15:14:11;2.40;99.90
84916;DHT22;75178;53.054;5.846;2024-01-06T15:16:57;2.40;99.90
84916;DHT22;75178;53.054;5.846;2024-01-06T15:19:41;2.30;99.90
84916;DHT22;75178;53.054;5.846;2024-01-06T15:22:25;2.30;99.90
84916;DHT22;75178;53.054;5.846;2024-01-06T15:25:09;2.30;99.90
84916;DHT22;75178;53.054;5.846;2024-01-06T15:27:53;2.40;99.90
84916;DHT22;75178;53.054;5.846;2024-01-06T15:30:37;2.30;99.90
84916;DHT22;75178;53.054;5.846;2024-01-06T15:33:23;2.30;99.90
84916;DHT22;75178;53.054;5.846;2024-01-06T15:36:07;2.30;99.90
84916;DHT22;75178;53.054;5.846;2024-01-06T15:38:52;2.30;99.90
84916;DHT22;75178;53.054;5.846;2024-01-06T15:41:36;2.30;99.90
84916;DHT22;75178;53.054;5.846;2024-01-06T15:44:20;2.30;99.90
84916;DHT22;75178;53.054;5.846;2024-01-06T15:47:04;2.20;99.90
84916;DHT22;75178;53.054;5.846;2024-01-06T15:49:50;2.20;99.90
84916;DHT22;75178;53.054;5.846;2024-01-06T15:52:34;2.20;99.90
84916;DHT22;75178;53.054;5.846;2024-01-06T15:55:19;2.20;99.90
84916;DHT22;75178;53.054;5.846;2024-01-06T15:58:03;2.20;99.90
84916;DHT22;75178;53.054;5.846;2024-01-06T16:00:47;2.10;99.90
84916;DHT22;75178;53.054;5.846;2024-01-06T16:03:31;2.10;99.90
84916;DHT22;75178;53.054;5.846;2024-01-06T16:06:18;2.10;99.90
84916;DHT22;75178;53.054;5.846;2024-01-06T16:09:02;2.10;99.90
84916;DHT22;75178;53.054;5.846;2024-01-06T16:11:46;2.10;99.90
84916;DHT22;75178;53.054;5.846;2024-01-06T16:14:30;2.10;99.90
84916;DHT22;75178;53.054;5.846;2024-01-06T16:17:14;2.00;99.90
84916;DHT22;75178;53.054;5.846;2024-01-06T16:19:59;2.00;99.90
84916;DHT22;75178;53.054;5.846;2024-01-06T16:22:44;2.00;99.90
84916;DHT22;75178;53.054;5.846;2024-01-06T16:25:30;2.00;99.90
84916;DHT22;75178;53.054;5.846;2024-01-06T16:28:14;1.90;99.90
84916;DHT22;75178;53.054;5.846;2024-01-06T16:30:58;2.00;99.90
84916;DHT22;75178;53.054;5.846;2024-01-06T16:33:43;1.90;99.90
84916;DHT22;75178;53.054;5.846;2024-01-06T16:36:27;1.90;99.90
84916;DHT22;75178;53.054;5.846;2024-01-06T16:39:12;1.80;99.90
84916;DHT22;75178;53.054;5.846;2024-01-06T16:41:57;1.80;99.90
84916;DHT22;75178;53.054;5.846;2024-01-06T16:44:41;1.80;99.90
84916;DHT22;75178;53.054;5.846;2024-01-06T16:47:25;1.80;99.90
84916;DHT22;75178;53.054;5.846;2024-01-06T16:50:09;1.70;99.90
84916;DHT22;75178;53.054;5.846;2024-01-06T16:52:54;1.60;99.90
84916;DHT22;75178;53.054;5.846;2024-01-06T16:55:40;1.60;99.90
84916;DHT22;75178;53.054;5.846;2024-01-06T16:58:24;1.50;99.90
84916;DHT22;75178;53.054;5.846;2024-01-06T17:01:08;1.50;99.90
84916;DHT22;75178;53.054;5.846;2024-01-06T17:03:54;1.50;99.90
84916;DHT22;75178;53.054;5.846;2024-01-06T17:06:39;1.50;99.90
84916;DHT22;75178;53.054;5.846;2024-01-06T17:09:23;1.40;99.90
84916;DHT22;75178;53.054;5.846;2024-01-06T17:12:09;1.40;99.90
84916;DHT22;75178;53.054;5.846;2024-01-06T17:14:53;1.40;99.90
84916;DHT22;75178;53.054;5.846;2024-01-06T17:17:37;1.40;99.90
84916;DHT22;75178;53.054;5.846;2024-01-06T17:20:21;1.30;99.90
84916;DHT22;75178;53.054;5.846;2024-01-06T17:23:05;1.40;99.90
84916;DHT22;75178;53.054;5.846;2024-01-06T17:25:49;1.30;99.90
84916;DHT22;75178;53.054;5.846;2024-01-06T17:28:35;1.30;99.90
84916;DHT22;75178;53.054;5.846;2024-01-06T17:31:19;1.30;99.90
84916;DHT22;75178;53.054;5.846;2024-01-06T17:34:03;1.30;99.90
84916;DHT22;75178;53.054;5.846;2024-01-06T17:36:47;1.30;99.90